Time;durP1;ratioP1;P1;durP2;ratioP2;P2;SDS_P1;SDS_P2;PMS_P1;PMS_P2;Temp;Humidity;BMP_temperature;BMP_pressure;BME280_temperature;BME280_humidity;BME280_pressure;Samples;Min_cycle;Max_cycle;Signal;HPM_P1;HPM_P2
2022/05/24 00:01:11;;;;;;;3.97;2.42;;;;;;;19.67;54.36;99278.50;5051176;28;20024;-38
2022/05/24 00:03:37;;;;;;;5.30;2.40;;;;;;;19.89;53.59;99302.44;5051144;28;20035;-38
2022/05/24 00:06:02;;;;;;;5.72;2.45;;;;;;;20.04;53.67;99303.50;5051285;28;20111;-38
2022/05/24 00:08:28;;;;;;;6.63;2.45;;;;;;;20.07;52.89;99308.34;5050975;28;20021;-38
2022/05/24 00:10:54;;;;;;;3.75;2.60;;;;;;;19.94;53.28;99298.94;5051128;28;20399;-38
2022/05/24 00:13:20;;;;;;;3.45;2.83;;;;;;;19.91;53.19;99294.09;5051398;28;20021;-38
2022/05/24 00:15:46;;;;;;;4.63;2.72;;;;;;;19.86;53.31;99300.31;5050805;28;20071;-38
2022/05/24 00:18:23;;;;;;;5.80;2.60;;;;;;;19.66;53.70;99297.66;5050757;28;20524;-38
2022/05/24 00:20:52;;;;;;;4.53;3.22;;;;;;;19.86;53.14;99300.31;5050170;28;20035;-38
2022/05/24 00:23:20;;;;;;;4.63;3.08;;;;;;;19.49;54.48;99298.75;5050075;28;20029;-38
2022/05/24 00:25:49;;;;;;;5.43;2.95;;;;;;;19.45;54.83;99308.47;5050937;28;20107;-39
2022/05/24 00:28:16;;;;;;;4.28;2.70;;;;;;;19.57;54.06;99304.69;5048779;28;20029;-38
2022/05/24 00:30:44;;;;;;;3.67;2.70;;;;;;;19.57;54.15;99302.78;5050440;28;20068;-38
2022/05/24 00:33:09;;;;;;;6.07;2.80;;;;;;;19.56;53.99;99308.47;5050603;28;20031;-38
2022/05/24 00:35:36;;;;;;;4.50;2.83;;;;;;;19.56;54.06;99297.69;5047491;28;20112;-38
2022/05/24 00:38:01;;;;;;;4.88;2.67;;;;;;;19.61;53.82;99301.19;5037069;28;20144;-38
2022/05/24 00:40:45;;;;;;;4.05;2.85;;;;;;;19.86;53.46;99307.63;5037614;28;20104;-38
2022/05/24 00:43:13;;;;;;;4.53;2.70;;;;;;;19.57;53.46;99302.78;5037502;28;20033;-38
2022/05/24 00:45:49;;;;;;;6.93;2.70;;;;;;;19.46;54.15;99296.63;5037327;28;20034;-38
2022/05/24 00:48:30;;;;;;;3.97;2.80;;;;;;;19.52;54.07;99300.91;5036985;28;20025;-38
2022/05/24 00:50:56;;;;;;;;;;;;;;;19.67;54.02;99299.28;5037787;28;20037;-38
2022/05/24 00:53:26;;;;;;;3.88;2.90;;;;;;;19.57;53.95;99299.28;5037431;28;19913;-38
2022/05/24 00:56:15;;;;;;;4.85;2.75;;;;;;;19.49;54.35;99296.06;5037294;28;20026;-39
2022/05/24 00:58:57;;;;;;;3.85;2.90;;;;;;;19.18;54.66;99289.91;5036923;28;20021;-37
2022/05/24 01:01:33;;;;;;;5.00;2.90;;;;;;;19.36;54.36;99291.22;5037185;28;20034;-37
2022/05/24 01:03:59;;;;;;;5.65;3.00;;;;;;;19.27;54.48;99292.88;5037375;28;20025;-38
2022/05/24 01:06:25;;;;;;;6.13;2.90;;;;;;;19.09;55.60;99294.22;5036873;28;20113;-37
2022/05/24 01:08:52;;;;;;;5.60;2.90;;;;;;;19.33;55.01;99295.28;5037209;28;20053;-37
2022/05/24 01:11:19;;;;;;;8.00;2.80;;;;;;;19.21;55.74;99296.63;5037033;28;20548;-37
2022/05/24 01:13:45;;;;;;;4.72;2.47;;;;;;;19.11;55.45;99284.81;5037319;28;20032;-37
2022/05/24 01:16:12;;;;;;;4.07;2.60;;;;;;;19.23;55.40;99286.38;5037024;28;20381;-38
2022/05/24 01:18:38;;;;;;;6.47;2.70;;;;;;;19.54;54.08;99285.25;5037128;28;20423;-38
2022/05/24 01:21:07;;;;;;;3.30;2.60;;;;;;;19.78;53.52;99294.66;5036852;28;20036;-38
2022/05/24 01:23:57;;;;;;;7.28;2.70;;;;;;;19.62;53.44;99286.59;5037016;28;20029;-37
2022/05/24 01:26:35;;;;;;;5.95;2.40;;;;;;;19.73;53.59;99295.50;5036898;28;20033;-37
2022/05/24 01:29:04;;;;;;;3.35;2.70;;;;;;;19.92;52.94;99303.81;5037087;28;20485;-38
2022/05/24 01:36:59;;;;;;;8.95;2.60;;;;;;;19.91;52.58;99305.72;5036931;28;20080;-37
2022/05/24 01:39:25;;;;;;;5.10;2.90;;;;;;;19.75;53.03;99298.75;5036912;28;20425;-38
2022/05/24 01:41:51;;;;;;;4.55;2.60;;;;;;;19.64;53.23;99289.81;5036786;28;20108;-37
2022/05/24 01:44:29;;;;;;;5.05;2.63;;;;;;;19.63;53.14;99303.59;5046546;28;20029;-38
2022/05/24 01:46:55;;;;;;;4.18;2.50;;;;;;;19.58;53.53;99300.91;5052890;28;20056;-37
2022/05/24 01:49:25;;;;;;;4.25;2.55;;;;;;;19.59;53.67;99302.53;5053484;28;20021;-37
2022/05/24 01:52:02;;;;;;;5.45;2.70;;;;;;;19.64;53.76;99299.81;5053624;28;20394;-37
2022/05/24 01:54:30;;;;;;;4.32;2.80;;;;;;;19.70;53.18;99294.16;5053810;28;20033;-39
2022/05/24 01:57:06;;;;;;;3.92;2.63;;;;;;;19.71;53.65;99301.16;5053170;28;20052;-38
2022/05/24 01:59:33;;;;;;;3.67;2.70;;;;;;;19.68;53.38;99300.88;5053138;28;20112;-38
2022/05/24 02:02:00;;;;;;;7.13;2.90;;;;;;;19.71;53.41;99300.34;5053155;28;20104;-42
2022/05/24 02:04:29;;;;;;;6.43;3.30;;;;;;;19.53;53.46;99297.16;5053297;28;20100;-38
2022/05/24 02:07:02;;;;;;;4.93;2.80;;;;;;;19.53;53.83;99305.25;5053022;28;20029;-38
2022/05/24 02:09:29;;;;;;;6.40;3.00;;;;;;;19.40;54.10;99316.59;5053444;28;20044;-38
2022/05/24 02:11:58;;;;;;;5.85;2.95;;;;;;;19.36;54.22;99315.50;5053401;28;20440;-38
2022/05/24 02:14:26;;;;;;;;;;;;;;;19.67;53.85;99312.78;5053512;28;20033;-38
2022/05/24 02:16:58;;;;;;;6.90;2.90;;;;;;;19.50;54.25;99319.28;5052974;28;19908;-37
2022/05/24 02:19:25;;;;;;;5.43;2.70;;;;;;;19.47;53.71;99321.69;5053196;28;20025;-37
2022/05/24 02:21:57;;;;;;;4.32;2.75;;;;;;;19.50;54.03;99316.56;5052885;28;20370;-37
2022/05/24 02:24:24;;;;;;;5.63;3.30;;;;;;;19.49;53.73;99316.84;5052960;28;20135;-38
2022/05/24 02:26:52;;;;;;;6.82;3.33;;;;;;;19.29;54.03;99317.69;5052944;28;20109;-38
2022/05/24 02:29:20;;;;;;;6.45;3.67;;;;;;;18.83;54.55;99317.66;5053014;28;20024;-38
2022/05/24 02:31:45;;;;;;;5.93;3.55;;;;;;;18.70;55.33;99322.50;5043170;28;20042;-37
2022/05/24 02:34:12;;;;;;;6.00;3.30;;;;;;;18.81;55.27;99320.66;5033148;28;20025;-37
2022/05/24 02:36:38;;;;;;;9.68;4.18;;;;;;;18.64;55.41;99325.44;5032117;28;20029;-38
2022/05/24 02:39:04;;;;;;;5.05;3.88;;;;;;;18.63;55.52;99327.31;5032866;28;20051;-38
2022/05/24 02:41:31;;;;;;;7.07;3.67;;;;;;;18.49;55.44;99291.19;5033124;28;20022;-38
2022/05/24 02:44:03;;;;;;;5.30;3.28;;;;;;;18.78;55.27;99328.44;5032605;28;20029;-38
2022/05/24 02:46:30;;;;;;;5.78;3.78;;;;;;;18.61;55.87;99337.56;5032179;28;20028;-38
2022/05/24 02:48:56;;;;;;;6.70;3.60;;;;;;;18.80;55.15;99339.75;5032588;28;20079;-39
2022/05/24 02:51:22;;;;;;;5.60;3.38;;;;;;;18.58;55.51;99326.50;5032708;28;20034;-38
2022/05/24 02:53:48;;;;;;;8.27;3.33;;;;;;;18.67;55.37;99333.00;5032584;28;20033;-39
2022/05/24 02:56:14;;;;;;;6.70;3.20;;;;;;;18.56;56.10;99349.16;5031903;28;20033;-38
2022/05/24 02:58:40;;;;;;;4.78;2.88;;;;;;;18.44;56.01;99339.66;5032163;28;20028;-38
2022/05/24 03:01:23;;;;;;;5.63;3.40;;;;;;;18.54;56.41;99340.53;5032625;28;20393;-38
2022/05/24 03:03:51;;;;;;;4.97;3.10;;;;;;;18.52;55.87;99337.28;5032894;28;20402;-42
2022/05/24 03:06:18;;;;;;;4.22;2.85;;;;;;;18.54;55.90;99337.00;5032030;28;20033;-38
2022/05/24 03:11:28;;;;;;;7.40;3.60;;;;;;;18.35;56.32;99350.97;5032387;28;20496;-37
2022/05/24 03:16:38;;;;;;;7.13;3.70;;;;;;;18.43;56.26;99352.34;5032075;28;20036;-37
2022/05/24 03:19:05;;;;;;;8.63;4.40;;;;;;;18.59;55.43;99347.78;5031699;28;20049;-38
2022/05/24 03:21:31;;;;;;;7.43;3.80;;;;;;;18.69;55.29;99355.09;5031987;28;20032;-38
2022/05/24 03:23:56;;;;;;;8.48;4.57;;;;;;;18.49;55.82;99351.28;5031964;28;20025;-38
2022/05/24 03:26:21;;;;;;;6.40;4.65;;;;;;;18.53;56.09;99351.56;5031773;28;20021;-37
2022/05/24 03:28:47;;;;;;;6.75;4.50;;;;;;;18.70;55.52;99352.13;5031423;28;20030;-37
2022/05/24 03:31:15;;;;;;;12.88;4.82;;;;;;;18.64;55.50;99347.81;5031450;28;20049;-37
2022/05/24 03:33:40;;;;;;;10.95;7.32;;;;;;;18.72;55.14;99343.78;5031833;28;20029;-37
2022/05/24 03:36:06;;;;;;;10.57;6.30;;;;;;;18.86;54.95;99352.19;5044342;28;20027;-37
2022/05/24 03:38:32;;;;;;;7.53;4.65;;;;;;;18.63;55.56;99354.25;5051119;28;20370;-37
2022/05/24 03:40:57;;;;;;;11.98;3.83;;;;;;;18.57;55.63;99355.34;5051355;28;20028;-37
2022/05/24 03:43:23;;;;;;;7.15;3.90;;;;;;;18.95;54.97;99358.69;5051384;28;20033;-37
2022/05/24 03:45:49;;;;;;;4.93;3.22;;;;;;;19.13;54.20;99352.75;5051330;28;20025;-37
2022/05/24 03:48:15;;;;;;;3.58;3.25;;;;;;;19.23;54.25;99349.25;5050794;28;20047;-37
2022/05/24 03:50:40;;;;;;;6.25;3.13;;;;;;;19.39;53.94;99351.94;5051017;28;20037;-37
2022/05/24 03:53:06;;;;;;;5.07;3.10;;;;;;;19.20;54.52;99351.69;5051406;28;20095;-37
2022/05/24 03:55:32;;;;;;;7.72;3.17;;;;;;;19.39;53.71;99350.03;5051239;28;20024;-37
2022/05/24 03:58:00;;;;;;;9.90;3.90;;;;;;;19.31;53.33;99332.53;5050918;28;20440;-37
2022/05/24 04:00:34;;;;;;;9.38;3.40;;;;;;;19.51;53.37;99345.19;5050962;28;20120;-37
2022/05/24 04:03:00;;;;;;;9.27;3.72;;;;;;;19.46;53.46;99357.88;5050726;28;20033;-37
2022/05/24 04:05:26;;;;;;;11.63;3.50;;;;;;;19.50;53.70;99367.84;5050761;28;20031;-37
2022/05/24 04:07:52;;;;;;;7.65;3.35;;;;;;;19.69;53.11;99372.69;5050578;28;20048;-38
2022/05/24 04:10:19;;;;;;;8.38;3.40;;;;;;;19.82;52.12;99365.91;5049910;28;20047;-37
2022/05/24 04:12:45;;;;;;;6.45;3.47;;;;;;;19.97;51.89;99370.47;5050586;28;20060;-37
2022/05/24 04:15:11;;;;;;;6.55;3.58;;;;;;;19.93;52.11;99362.13;5050494;28;20163;-38
2022/05/24 04:17:36;;;;;;;7.32;3.58;;;;;;;19.97;52.28;99355.09;5050698;28;20029;-37
2022/05/24 04:20:03;;;;;;;6.47;3.60;;;;;;;20.14;51.86;99379.06;5050686;28;20025;-38
2022/05/24 04:22:28;;;;;;;6.00;3.20;;;;;;;19.95;52.00;99381.56;5050146;28;20020;-37
2022/05/24 04:24:54;;;;;;;4.90;3.15;;;;;;;19.92;52.10;99377.53;5050634;28;20029;-37
2022/05/24 04:27:19;;;;;;;8.10;3.40;;;;;;;20.06;51.33;99379.63;5050608;28;20063;-37
2022/05/24 04:29:44;;;;;;;6.70;3.80;;;;;;;20.07;51.74;99390.16;5050381;28;20132;-37
2022/05/24 04:32:10;;;;;;;5.57;3.00;;;;;;;19.91;51.64;99380.47;5050211;28;20029;-37
2022/05/24 04:34:37;;;;;;;9.27;2.97;;;;;;;20.04;51.37;99379.91;5041314;28;20017;-37
2022/05/24 04:37:07;;;;;;;7.22;3.00;;;;;;;19.84;51.82;99375.38;5029378;28;20029;-37
2022/05/24 04:39:32;;;;;;;6.43;3.28;;;;;;;19.61;52.74;99379.44;5030255;28;20124;-37
2022/05/24 04:44:42;;;;;;;8.65;3.05;;;;;;;20.16;51.34;99370.69;5030379;28;20039;-36
2022/05/24 04:47:07;;;;;;;6.30;3.10;;;;;;;20.41;50.71;99365.19;5030631;28;20025;-38
2022/05/24 04:49:34;;;;;;;5.45;2.90;;;;;;;20.75;49.84;99374.50;5030973;28;20025;-37
2022/05/24 04:52:00;;;;;;;6.82;3.10;;;;;;;20.89;49.78;99378.19;5030422;28;20053;-37
2022/05/24 04:54:26;;;;;;;6.88;3.22;;;;;;;21.02;49.35;99379.47;5030585;28;20076;-38
2022/05/24 04:56:51;;;;;;;5.25;2.85;;;;;;;20.46;50.91;99380.56;5030245;28;20026;-38
2022/05/24 04:59:17;;;;;;;5.72;2.78;;;;;;;20.87;50.25;99383.09;5030399;28;20026;-38
2022/05/24 05:01:43;;;;;;;6.50;2.88;;;;;;;21.20;49.37;99375.28;5030979;28;20031;-37
2022/05/24 05:04:09;;;;;;;7.20;3.00;;;;;;;21.56;47.93;99380.41;5030383;28;20103;-37
2022/05/24 05:06:35;;;;;;;4.57;2.53;;;;;;;22.08;47.40;99396.94;5030011;28;20218;-38
2022/05/24 05:09:00;;;;;;;5.65;2.35;;;;;;;22.82;45.27;99400.09;5030334;28;20101;-37
2022/05/24 05:11:26;;;;;;;5.80;2.78;;;;;;;22.98;44.63;99406.13;5030280;28;20163;-38
2022/05/24 05:13:52;;;;;;;3.92;2.63;;;;;;;22.80;44.22;99396.88;5030523;28;20029;-36
2022/05/24 05:16:18;;;;;;;7.50;2.50;;;;;;;22.50;44.24;99408.94;5030030;28;20029;-38
2022/05/24 05:18:43;;;;;;;6.15;2.63;;;;;;;21.99;45.36;99394.06;5030535;28;20104;-37
2022/05/24 05:21:09;;;;;;;4.22;2.67;;;;;;;21.63;46.10;99387.13;5030980;28;20052;-38
2022/05/24 05:23:35;;;;;;;8.63;3.50;;;;;;;21.84;46.69;99392.34;5034294;28;20059;-37
2022/05/24 05:26:00;;;;;;;6.65;2.90;;;;;;;22.26;45.54;99393.53;5046741;28;20075;-38
2022/05/24 05:28:26;;;;;;;3.50;2.60;;;;;;;22.09;45.98;99390.44;5044735;28;20487;-36
2022/05/24 05:33:36;;;;;;;4.13;2.50;;;;;;;21.62;47.54;99379.28;5043110;28;20481;-37
2022/05/24 05:36:02;;;;;;;7.72;3.00;;;;;;;21.91;47.22;99383.84;5042272;28;20045;-37
2022/05/24 05:38:28;;;;;;;5.28;2.50;;;;;;;22.69;45.64;99384.56;5041464;28;20024;-36
2022/05/24 05:40:54;;;;;;;5.50;2.80;;;;;;;23.29;44.30;99382.06;5041533;28;20017;-38
2022/05/24 05:43:20;;;;;;;4.35;2.63;;;;;;;23.39;43.28;99390.03;5044105;28;20525;-37
2022/05/24 05:45:57;;;;;;;7.68;2.70;;;;;;;23.68;42.28;99386.28;5036918;28;20140;-37
2022/05/24 05:48:22;;;;;;;4.65;2.30;;;;;;;24.05;44.04;99392.69;5050195;28;20040;-37
2022/05/24 05:50:48;;;;;;;5.10;2.70;;;;;;;24.66;40.43;99390.66;5053794;28;20041;-38
2022/05/24 05:53:15;;;;;;;6.93;2.65;;;;;;;24.39;40.19;99395.00;5052637;28;20056;-37
2022/05/24 05:55:41;;;;;;;8.68;2.80;;;;;;;24.00;40.82;99390.06;5052335;28;20100;-36
2022/05/24 05:58:07;;;;;;;3.83;2.60;;;;;;;23.85;41.72;99393.09;5036765;28;20432;-37
2022/05/24 06:00:34;;;;;;;4.38;2.40;;;;;;;24.11;41.06;99396.94;5032239;28;20041;-37
2022/05/24 06:02:59;;;;;;;4.72;2.50;;;;;;;24.01;40.29;99383.56;5032609;28;20105;-37
2022/05/24 06:05:25;;;;;;;6.10;2.70;;;;;;;23.82;41.41;99399.94;5032630;28;20533;-38
2022/05/24 06:07:50;;;;;;;4.82;2.60;;;;;;;23.28;41.99;99409.50;5032312;28;20021;-37
2022/05/24 06:10:16;;;;;;;8.93;2.85;;;;;;;24.21;40.57;99406.78;5031691;28;20022;-37
2022/05/24 06:12:42;;;;;;;4.72;2.40;;;;;;;24.69;38.93;99397.41;5032374;28;20053;-36
2022/05/24 06:15:09;;;;;;;23.48;15.45;;;;;;;25.00;38.73;99408.41;5032161;28;20025;-38
2022/05/24 06:17:42;;;;;;;14.52;8.20;;;;;;;25.10;38.56;99416.34;5031879;28;20021;-38
2022/05/24 06:20:08;;;;;;;6.38;2.45;;;;;;;25.30;37.86;99412.38;5031995;28;20032;-38
2022/05/24 06:22:33;;;;;;;5.80;2.70;;;;;;;25.78;37.33;99407.34;5032356;28;20018;-37
2022/05/24 06:24:59;;;;;;;5.10;2.30;;;;;;;26.22;36.75;99405.66;5032211;28;20040;-38
2022/05/24 06:27:25;;;;;;;7.97;2.47;;;;;;;25.94;36.45;99406.66;5031763;28;20500;-37
2022/05/24 06:29:50;;;;;;;3.75;2.38;;;;;;;25.82;37.14;99413.78;5030825;28;20049;-38
2022/05/24 06:32:17;;;;;;;7.32;2.90;;;;;;;26.61;35.96;99415.72;5031878;28;20021;-37
2022/05/24 06:34:45;;;;;;;5.20;2.35;;;;;;;26.92;34.57;99420.22;5030672;28;20116;-37
2022/05/24 06:37:11;;;;;;;4.88;2.13;;;;;;;27.23;33.34;99425.56;5031867;28;20507;-35
2022/05/24 06:39:36;;;;;;;6.75;2.22;;;;;;;27.78;32.98;99420.47;5042059;28;20029;-37
2022/05/24 06:42:02;;;;;;;5.60;2.25;;;;;;;28.27;31.73;99399.91;5031848;28;20048;-37
2022/05/24 06:44:27;;;;;;;7.75;3.70;;;;;;;28.82;31.72;99406.31;5031604;28;20112;-38
2022/05/24 06:46:53;;;;;;;4.75;2.53;;;;;;;28.47;31.53;99405.75;5031514;28;20029;-38
2022/05/24 06:49:18;;;;;;;3.70;2.30;;;;;;;28.38;31.98;99408.50;5031149;28;20037;-39
2022/05/24 06:51:44;;;;;;;4.03;2.20;;;;;;;28.54;31.37;99413.44;5031506;28;20037;-37
2022/05/24 06:54:09;;;;;;;6.85;2.40;;;;;;;28.21;32.31;99416.81;5031528;28;20063;-38
2022/05/24 06:56:35;;;;;;;5.57;2.63;;;;;;;27.33;33.65;99413.53;5050612;28;20040;-38
2022/05/24 07:04:28;;;;;;;4.90;2.38;;;;;;;27.50;33.31;99426.34;5040063;28;20032;-38
2022/05/24 07:06:54;;;;;;;4.80;2.25;;;;;;;27.54;33.26;99426.50;5051112;28;20037;-38
2022/05/24 07:09:19;;;;;;;5.75;2.50;;;;;;;27.29;34.18;99415.28;5051037;28;20021;-38
2022/05/24 07:11:45;;;;;;;5.45;2.30;;;;;;;27.06;34.13;99409.97;5050839;28;20025;-37
2022/05/24 07:14:10;;;;;;;4.85;2.40;;;;;;;27.16;33.87;99418.97;5051267;28;20032;-38
2022/05/24 07:16:35;;;;;;;7.82;2.40;;;;;;;27.29;33.95;99412.56;5050846;28;20021;-49
2022/05/24 07:19:01;;;;;;;4.80;2.50;;;;;;;26.92;34.68;99417.50;5050951;28;20024;-49
2022/05/24 07:21:26;;;;;;;4.80;2.67;;;;;;;26.84;34.64;99410.91;5051158;28;20039;-48
2022/05/24 07:23:52;;;;;;;5.05;2.65;;;;;;;27.09;34.41;99412.06;5050599;28;20027;-50
2022/05/24 07:26:21;;;;;;;7.00;2.42;;;;;;;27.69;34.11;99415.06;5050594;28;20407;-48
2022/05/24 07:28:47;;;;;;;8.02;2.40;;;;;;;27.45;34.08;99401.94;5050986;28;20025;-48
2022/05/24 07:31:12;;;;;;;4.65;2.63;;;;;;;27.17;34.17;99413.19;5050216;28;20037;-37
2022/05/24 07:33:38;;;;;;;7.78;3.67;;;;;;;27.04;35.36;99408.69;5050311;28;20090;-38
2022/05/24 07:36:05;;;;;;;5.90;2.90;;;;;;;27.44;34.72;99412.06;5050375;28;20032;-38
2022/05/24 07:38:31;;;;;;;6.20;2.47;;;;;;;27.82;33.45;99400.38;5030272;28;20044;-37
2022/05/24 07:46:25;;;;;;;5.25;2.63;;;;;;;28.37;33.18;99393.25;5029946;28;20102;-38
2022/05/24 07:48:50;;;;;;;7.00;4.40;;;;;;;28.73;32.78;99394.66;5028716;28;20021;-35
2022/05/24 07:51:16;;;;;;;6.38;2.50;;;;;;;28.78;32.63;99394.44;5030364;28;20022;-38
2022/05/24 07:53:41;;;;;;;5.00;2.63;;;;;;;29.20;31.17;99390.91;5030588;28;20052;-51
2022/05/24 07:56:07;;;;;;;3.58;2.53;;;;;;;28.98;31.96;99386.56;5029604;28;20136;-48
2022/05/24 07:58:33;;;;;;;10.93;5.70;;;;;;;29.75;30.78;99386.16;5029847;28;20021;-50
2022/05/24 08:00:59;;;;;;;6.93;2.65;;;;;;;29.00;31.86;99387.81;5031211;28;20057;-51
2022/05/24 08:03:25;;;;;;;15.10;10.82;;;;;;;28.78;31.74;99402.66;5050457;28;20075;-50
2022/05/24 08:05:50;;;;;;;5.28;3.33;;;;;;;29.28;31.20;99400.16;5049511;28;20491;-49
2022/05/24 08:08:17;;;;;;;7.13;2.80;;;;;;;30.13;30.50;99396.03;5042151;28;20028;-49
2022/05/24 08:10:43;;;;;;;7.10;3.53;;;;;;;30.43;29.01;99391.13;5041121;28;20171;-50
2022/05/24 08:13:14;;;;;;;6.35;2.60;;;;;;;30.35;29.43;99392.06;5038452;28;20473;-51
2022/05/24 08:15:39;;;;;;;6.38;2.58;;;;;;;29.93;29.40;99393.06;5042148;28;20036;-50
2022/05/24 08:18:05;;;;;;;18.48;9.48;;;;;;;29.98;30.87;99397.50;5038707;28;20029;-49
2022/05/24 08:20:31;;;;;;;7.30;3.72;;;;;;;29.54;31.09;99388.97;5039528;28;20107;-51
2022/05/24 08:22:58;;;;;;;7.18;3.03;;;;;;;30.21;31.44;99384.94;5036967;28;20612;-49
2022/05/24 08:25:25;;;;;;;8.70;4.43;;;;;;;30.38;31.30;99372.94;5038073;28;20036;-48
2022/05/24 08:27:51;;;;;;;10.13;5.05;;;;;;;30.42;30.87;99375.78;5038897;28;20021;-47
2022/05/24 08:30:17;;;;;;;4.57;2.70;;;;;;;29.92;30.17;99374.97;5038688;28;20488;-48
2022/05/24 08:32:44;;;;;;;4.55;2.60;;;;;;;29.89;29.96;99366.63;5043612;28;20044;-48
2022/05/24 08:35:12;;;;;;;8.68;2.92;;;;;;;29.29;30.29;99368.91;5039411;28;20086;-51
2022/05/24 08:37:40;;;;;;;4.15;2.60;;;;;;;29.36;30.81;99344.47;5036949;28;20445;-48
2022/05/24 08:40:06;;;;;;;4.50;2.60;;;;;;;28.00;32.12;99331.97;5040351;28;20090;-49
2022/05/24 08:42:57;;;;;;;5.95;2.83;;;;;;;28.60;32.99;99335.50;5037701;28;20456;-51
2022/05/24 08:48:28;;;;;;;5.13;2.50;;;;;;;29.24;30.83;99335.13;5029176;28;20044;-50
2022/05/24 08:51:04;;;;;;;13.00;8.50;;;;;;;29.31;31.67;99350.19;5029776;28;20108;-49
2022/05/24 08:53:39;;;;;;;5.68;2.70;;;;;;;29.97;30.39;99358.31;5040429;28;20036;-49
2022/05/24 08:56:07;;;;;;;8.43;2.67;;;;;;;30.62;29.57;99356.78;5051918;28;20029;-48
2022/05/24 08:58:42;;;;;;;9.52;2.53;;;;;;;30.88;28.97;99359.91;5053135;28;20094;-50
2022/05/24 09:01:17;;;;;;;5.40;2.13;;;;;;;31.37;27.73;99370.66;5050934;28;20047;-50
2022/05/24 09:03:43;;;;;;;15.52;11.52;;;;;;;28.90;30.81;99357.31;5033069;28;20074;-52
2022/05/24 09:06:17;;;;;;;3.78;2.30;;;;;;;27.75;32.97;99355.56;5033099;28;20044;-48
2022/05/24 09:09:08;;;;;;;5.60;2.35;;;;;;;28.23;32.54;99348.91;5033432;28;20328;-51
2022/05/24 09:11:59;;;;;;;8.05;2.50;;;;;;;27.85;32.35;99349.72;5033176;28;20621;-48
2022/05/24 09:14:37;;;;;;;3.15;2.40;;;;;;;29.00;31.68;99341.28;5033150;28;20505;-51
2022/05/24 09:17:11;;;;;;;5.13;2.28;;;;;;;29.77;29.79;99348.25;5033040;28;20053;-51
2022/05/24 09:19:40;;;;;;;12.75;2.45;;;;;;;29.16;31.11;99348.88;5033712;28;20061;-49
2022/05/24 09:22:06;;;;;;;6.10;2.38;;;;;;;29.03;30.61;99356.22;5032662;28;20509;-48
2022/05/24 09:24:38;;;;;;;7.55;2.45;;;;;;;28.55;31.52;99361.13;5032618;28;20416;-51
2022/05/24 09:27:04;;;;;;;4.63;2.30;;;;;;;28.15;31.81;99345.09;5032418;28;20223;-49
2022/05/24 09:29:31;;;;;;;6.05;2.50;;;;;;;28.46;31.80;99341.19;5032961;28;20033;-50
2022/05/24 09:31:59;;;;;;;4.10;2.10;;;;;;;28.71;30.95;99353.13;5032735;28;20109;-49
2022/05/24 09:34:28;;;;;;;5.10;2.20;;;;;;;28.77;31.40;99345.50;5032797;28;20025;-50
2022/05/24 09:36:55;;;;;;;;;;;;;;;29.34;30.65;99354.97;5032514;28;20126;-49
2022/05/24 09:39:21;;;;;;;4.80;2.20;;;;;;;29.83;29.56;99357.84;5032281;28;19909;-48
2022/05/24 09:42:36;;;;;;;6.50;2.35;;;;;;;30.65;28.77;99347.81;5032565;28;20124;-50
2022/05/24 09:45:27;;;;;;;3.17;2.05;;;;;;;31.78;26.82;99340.31;5029250;28;20112;-50
2022/05/24 09:47:58;;;;;;;4.15;2.20;;;;;;;31.20;28.30;99328.97;5032518;28;20025;-50
2022/05/24 09:50:29;;;;;;;4.40;2.25;;;;;;;30.91;28.46;99328.22;5032704;28;20113;-48
2022/05/24 09:53:18;;;;;;;5.88;2.65;;;;;;;29.93;29.81;99329.97;5032359;28;20033;-49
2022/05/24 09:55:59;;;;;;;3.42;2.30;;;;;;;29.23;30.11;99336.25;5032904;28;20082;-49
2022/05/24 09:58:36;;;;;;;36.47;26.60;;;;;;;29.26;30.33;99331.22;5032716;28;20105;-48
2022/05/24 10:01:10;;;;;;;3.72;2.75;;;;;;;29.56;30.08;99327.16;5032229;28;20104;-46
2022/05/24 10:03:37;;;;;;;7.00;2.65;;;;;;;28.97;30.71;99330.97;5031934;28;20438;-47
2022/05/24 10:06:27;;;;;;;3.25;2.00;;;;;;;28.78;31.46;99326.00;5032356;28;20029;-48
2022/05/24 10:09:22;;;;;;;4.93;2.20;;;;;;;29.52;30.30;99320.78;5032252;28;20037;-48
2022/05/24 10:12:29;;;;;;;6.63;2.33;;;;;;;30.37;29.58;99318.41;5035835;28;20629;-48
2022/05/24 10:15:24;;;;;;;8.43;2.42;;;;;;;31.08;28.61;99319.66;5046040;28;20508;-51
2022/05/24 10:18:23;;;;;;;5.10;2.65;;;;;;;29.50;29.69;99317.56;5043920;28;20033;-49
2022/05/24 10:21:15;;;;;;;5.63;2.40;;;;;;;30.01;29.03;99325.50;5051320;28;20028;-51
2022/05/24 10:23:55;;;;;;;3.20;2.38;;;;;;;29.66;29.71;99319.63;5052864;28;20036;-48
2022/05/24 10:26:26;;;;;;;4.57;2.35;;;;;;;29.96;29.98;99339.44;5051976;28;20104;-50
2022/05/24 10:29:04;;;;;;;3.90;2.20;;;;;;;29.75;28.71;99329.38;5051555;28;20678;-47
2022/05/24 10:31:48;;;;;;;3.25;2.50;;;;;;;28.52;31.42;99328.97;5051709;28;20132;-47
2022/05/24 10:40:10;;;;;;;6.90;2.78;;;;;;;29.48;29.70;99299.88;5052579;28;20495;-50
2022/05/24 10:43:09;;;;;;;3.83;2.50;;;;;;;30.14;29.30;99296.09;5052446;28;20096;-49
2022/05/24 10:45:50;;;;;;;5.13;2.22;;;;;;;30.17;29.15;99295.41;5051382;28;20109;-48
2022/05/24 10:48:22;;;;;;;5.25;2.42;;;;;;;29.47;30.87;99293.56;5051289;28;20027;-47
2022/05/24 10:50:55;;;;;;;3.55;2.45;;;;;;;28.78;31.43;99295.09;5051836;28;20024;-51
2022/05/24 10:53:28;;;;;;;5.72;2.50;;;;;;;28.88;30.87;99296.59;5050068;28;20031;-48
2022/05/24 10:56:20;;;;;;;8.18;2.53;;;;;;;29.22;30.90;99281.78;5051357;28;20056;-48
2022/05/24 10:58:47;;;;;;;4.82;2.60;;;;;;;29.55;29.93;99283.66;5051615;28;20029;-49
2022/05/24 11:01:15;;;;;;;3.67;2.33;;;;;;;29.93;29.32;99280.59;5051688;28;20092;-48
2022/05/24 11:03:53;;;;;;;4.07;2.30;;;;;;;30.24;29.11;99267.41;5050443;28;20025;-50
2022/05/24 11:06:41;;;;;;;7.50;2.83;;;;;;;30.43;28.90;99262.13;5050985;28;20080;-48
2022/05/24 11:09:13;;;;;;;4.72;2.55;;;;;;;28.94;30.91;99259.66;5050738;28;20017;-51
2022/05/24 11:12:04;;;;;;;6.53;2.63;;;;;;;29.61;30.60;99252.94;5051177;28;20473;-47
2022/05/24 11:14:38;;;;;;;7.80;2.80;;;;;;;29.55;31.62;99253.50;5051386;28;20048;-48
2022/05/24 11:17:03;;;;;;;3.28;2.30;;;;;;;28.54;32.56;99252.81;5051665;28;20121;-46
2022/05/24 11:19:39;;;;;;;5.25;2.70;;;;;;;29.23;31.77;99243.09;5050839;28;20319;-47
2022/05/24 11:22:41;;;;;;;6.68;2.88;;;;;;;28.98;31.91;99235.97;5050738;28;20471;-47
2022/05/24 11:25:12;;;;;;;4.50;2.65;;;;;;;29.59;31.77;99211.38;5050951;28;20037;-49
2022/05/24 11:27:42;;;;;;;3.97;2.47;;;;;;;29.71;32.39;99220.72;5050784;28;20116;-48
2022/05/24 11:30:13;;;;;;;5.18;2.72;;;;;;;29.59;32.65;99210.56;5050130;28;20392;-49
2022/05/24 11:32:47;;;;;;;4.65;3.38;;;;;;;29.03;33.27;99209.16;5051526;28;20025;-47
2022/05/24 11:35:19;;;;;;;5.05;2.80;;;;;;;29.61;31.55;99214.56;5045929;28;20401;-48
2022/05/24 11:37:52;;;;;;;5.03;2.42;;;;;;;29.74;31.53;99218.13;5031743;28;20061;-49
2022/05/24 11:40:39;;;;;;;6.22;3.00;;;;;;;28.63;33.40;99222.59;5031400;28;20028;-48
2022/05/24 11:43:43;;;;;;;8.30;2.97;;;;;;;29.13;32.63;99218.91;5030407;28;20414;-48
2022/05/24 11:46:08;;;;;;;4.80;2.90;;;;;;;29.12;33.17;99216.47;5030453;28;20022;-47
2022/05/24 11:48:38;;;;;;;4.90;3.03;;;;;;;29.58;31.94;99219.94;5030130;28;20056;-47
2022/05/24 11:51:45;;;;;;;6.63;3.25;;;;;;;29.25;33.89;99240.03;5030258;28;20069;-49
2022/05/24 11:54:23;;;;;;;3.63;2.95;;;;;;;29.41;32.08;99242.88;5000193;28;20076;-48
2022/05/24 11:57:00;;;;;;;5.63;2.97;;;;;;;30.20;31.49;99234.38;5029990;28;20420;-48
2022/05/24 11:59:44;;;;;;;5.18;3.00;;;;;;;30.59;31.49;99251.19;5030157;28;20045;-47
2022/05/24 12:02:23;;;;;;;3.65;3.00;;;;;;;30.96;30.94;99251.84;5029657;28;20025;-48
2022/05/24 12:07:56;;;;;;;5.55;3.50;;;;;;;29.96;32.35;99263.44;5029805;28;20040;-50
2022/05/24 12:10:21;;;;;;;7.22;3.15;;;;;;;29.85;32.62;99259.56;5029594;28;20422;-49
2022/05/24 12:12:55;;;;;;;9.20;3.50;;;;;;;29.90;34.03;99264.84;5029479;28;20036;-47
2022/05/24 12:15:44;;;;;;;4.63;3.00;;;;;;;30.83;32.29;99274.22;5029223;28;20417;-46
2022/05/24 12:18:11;;;;;;;4.10;3.10;;;;;;;30.32;32.86;99274.72;5028301;28;20029;-47
2022/05/24 12:20:36;;;;;;;7.88;4.85;;;;;;;31.10;31.81;99270.66;5029929;28;20087;-48
2022/05/24 12:23:07;;;;;;;4.32;3.20;;;;;;;31.42;31.74;99269.88;5029369;28;20033;-49
2022/05/24 12:25:53;;;;;;;5.18;2.90;;;;;;;31.58;31.85;99276.19;5030082;28;20454;-48
2022/05/24 12:28:25;;;;;;;5.90;3.25;;;;;;;30.91;33.05;99265.03;5035274;28;20096;-50